sensor_id;sensor_type;location;lat;lon;timestamp;pressure;altitude;pressure_sealevel;temperature;humidity
4972;BME280;2501;51.214;6.768;2024-01-10T00:00:31;102702.66;;;-4.42;83.70
4972;BME280;2501;51.214;6.768;2024-01-10T00:02:59;102701.00;;;-4.41;83.26
4972;BME280;2501;51.214;6.768;2024-01-10T00:05:28;102699.38;;;-4.58;83.34
4972;BME280;2501;51.214;6.768;2024-01-10T00:07:57;102698.13;;;-4.36;83.17
4972;BME280;2501;51.214;6.768;2024-01-10T00:10:25;102700.56;;;-4.54;82.90
4972;BME280;2501;51.214;6.768;2024-01-10T00:12:54;102690.63;;;-4.60;84.27
4972;BME280;2501;51.214;6.768;2024-01-10T00:15:22;102699.63;;;-4.46;83.14
4972;BME280;2501;51.214;6.768;2024-01-10T00:17:53;102696.47;;;-4.44;82.25
4972;BME280;2501;51.214;6.768;2024-01-10T00:20:22;102692.72;;;-4.39;81.49
4972;BME280;2501;51.214;6.768;2024-01-10T00:22:50;102691.56;;;-4.06;80.53
4972;BME280;2501;51.214;6.768;2024-01-10T00:25:18;102684.41;;;-3.92;78.64
4972;BME280;2501;51.214;6.768;2024-01-10T00:27:47;102676.41;;;-4.31;80.87
4972;BME280;2501;51.214;6.768;2024-01-10T00:30:13;102679.97;;;-4.11;78.88
4972;BME280;2501;51.214;6.768;2024-01-10T00:32:41;102677.44;;;-4.29;78.61
4972;BME280;2501;51.214;6.768;2024-01-10T00:35:13;102669.84;;;-4.63;79.99
4972;BME280;2501;51.214;6.768;2024-01-10T00:37:41;102663.72;;;-4.21;78.71
4972;BME280;2501;51.214;6.768;2024-01-10T00:40:10;102662.28;;;-4.36;78.00
4972;BME280;2501;51.214;6.768;2024-01-10T00:42:38;102664.63;;;-4.20;78.01
4972;BME280;2501;51.214;6.768;2024-01-10T00:45:08;102665.84;;;-4.16;77.47
4972;BME280;2501;51.214;6.768;2024-01-10T00:47:36;102664.78;;;-4.18;76.31
4972;BME280;2501;51.214;6.768;2024-01-10T00:50:06;102666.84;;;-4.14;76.36
4972;BME280;2501;51.214;6.768;2024-01-10T00:52:37;102668.25;;;-4.27;76.75
4972;BME280;2501;51.214;6.768;2024-01-10T00:55:06;102664.69;;;-4.37;77.42
4972;BME280;2501;51.214;6.768;2024-01-10T00:57:35;102665.75;;;-4.35;77.20
4972;BME280;2501;51.214;6.768;2024-01-10T01:00:04;102663.88;;;-4.28;78.16
4972;BME280;2501;51.214;6.768;2024-01-10T01:02:33;102666.28;;;-4.21;77.88
4972;BME280;2501;51.214;6.768;2024-01-10T01:05:02;102667.94;;;-4.21;77.21
4972;BME280;2501;51.214;6.768;2024-01-10T01:07:30;102670.06;;;-4.26;78.46
4972;BME280;2501;51.214;6.768;2024-01-10T01:10:02;102668.91;;;-4.46;77.58
4972;BME280;2501;51.214;6.768;2024-01-10T01:12:31;102667.69;;;-4.50;79.03
4972;BME280;2501;51.214;6.768;2024-01-10T01:14:59;102664.22;;;-4.33;78.83
4972;BME280;2501;51.214;6.768;2024-01-10T01:17:27;102651.13;;;-4.36;79.20
4972;BME280;2501;51.214;6.768;2024-01-10T01:19:56;102657.91;;;-4.37;79.32
4972;BME280;2501;51.214;6.768;2024-01-10T01:22:25;102657.91;;;-4.45;79.64
4972;BME280;2501;51.214;6.768;2024-01-10T01:24:53;102657.75;;;-4.38;79.44
4972;BME280;2501;51.214;6.768;2024-01-10T01:27:24;102661.56;;;-4.52;81.06
4972;BME280;2501;51.214;6.768;2024-01-10T01:29:52;102662.00;;;-4.65;82.25
4972;BME280;2501;51.214;6.768;2024-01-10T01:32:21;102660.13;;;-4.23;80.78
4972;BME280;2501;51.214;6.768;2024-01-10T01:34:50;102653.63;;;-4.19;79.85
4972;BME280;2501;51.214;6.768;2024-01-10T01:37:18;102651.97;;;-4.27;79.62
4972;BME280;2501;51.214;6.768;2024-01-10T01:39:46;102650.97;;;-4.38;80.27
4972;BME280;2501;51.214;6.768;2024-01-10T01:42:15;102650.22;;;-4.37;80.16
4972;BME280;2501;51.214;6.768;2024-01-10T01:44:46;102654.06;;;-4.68;83.38
4972;BME280;2501;51.214;6.768;2024-01-10T01:47:15;102649.91;;;-4.40;81.63
4972;BME280;2501;51.214;6.768;2024-01-10T01:49:43;102653.38;;;-4.48;81.73
4972;BME280;2501;51.214;6.768;2024-01-10T01:52:12;102656.09;;;-4.38;82.05
4972;BME280;2501;51.214;6.768;2024-01-10T01:54:40;102652.47;;;-4.40;82.84
4972;BME280;2501;51.214;6.768;2024-01-10T01:57:09;102653.84;;;-4.35;82.45
4972;BME280;2501;51.214;6.768;2024-01-10T01:59:37;102652.97;;;-4.61;83.18
4972;BME280;2501;51.214;6.768;2024-01-10T02:02:09;102645.41;;;-4.34;82.99
4972;BME280;2501;51.214;6.768;2024-01-10T02:04:40;102642.19;;;-4.23;81.46
4972;BME280;2501;51.214;6.768;2024-01-10T02:07:09;102648.34;;;-4.82;83.67
4972;BME280;2501;51.214;6.768;2024-01-10T02:09:37;102640.50;;;-4.84;84.49
4972;BME280;2501;51.214;6.768;2024-01-10T02:12:06;102638.22;;;-4.64;85.74
4972;BME280;2501;51.214;6.768;2024-01-10T02:14:35;102641.16;;;-5.04;86.60
4972;BME280;2501;51.214;6.768;2024-01-10T02:17:04;102645.31;;;-4.70;87.30
4972;BME280;2501;51.214;6.768;2024-01-10T02:19:35;102637.00;;;-4.59;83.32
4972;BME280;2501;51.214;6.768;2024-01-10T02:22:04;102635.47;;;-4.39;82.67
4972;BME280;2501;51.214;6.768;2024-01-10T02:24:32;102634.50;;;-4.23;82.51
4972;BME280;2501;51.214;6.768;2024-01-10T02:27:01;102623.59;;;-4.65;82.43
4972;BME280;2501;51.214;6.768;2024-01-10T02:29:30;102632.03;;;-4.12;81.85
4972;BME280;2501;51.214;6.768;2024-01-10T02:31:58;102624.25;;;-4.23;81.14
4972;BME280;2501;51.214;6.768;2024-01-10T02:34:27;102618.81;;;-4.26;81.09
4972;BME280;2501;51.214;6.768;2024-01-10T02:36:55;102610.13;;;-4.36;82.39
4972;BME280;2501;51.214;6.768;2024-01-10T02:39:24;102619.13;;;-4.23;81.97
4972;BME280;2501;51.214;6.768;2024-01-10T02:41:52;102629.34;;;-4.67;82.84
4972;BME280;2501;51.214;6.768;2024-01-10T02:44:23;102617.88;;;-4.53;84.55
4972;BME280;2501;51.214;6.768;2024-01-10T02:46:53;102609.25;;;-4.37;83.42
4972;BME280;2501;51.214;6.768;2024-01-10T02:49:21;102624.00;;;-4.43;83.61
4972;BME280;2501;51.214;6.768;2024-01-10T02:51:50;102623.78;;;-4.80;83.60
4972;BME280;2501;51.214;6.768;2024-01-10T02:54:18;102627.09;;;-4.19;82.25
4972;BME280;2501;51.214;6.768;2024-01-10T02:56:47;102627.72;;;-4.75;82.26
4972;BME280;2501;51.214;6.768;2024-01-10T02:59:15;102631.03;;;-4.32;81.83
4972;BME280;2501;51.214;6.768;2024-01-10T03:01:46;102626.00;;;-4.66;81.68
4972;BME280;2501;51.214;6.768;2024-01-10T03:04:15;102616.91;;;-4.37;81.53
4972;BME280;2501;51.214;6.768;2024-01-10T03:06:43;102621.91;;;-4.47;81.86
4972;BME280;2501;51.214;6.768;2024-01-10T03:09:12;102615.84;;;-5.01;83.92
4972;BME280;2501;51.214;6.768;2024-01-10T03:11:40;102616.59;;;-5.10;85.92
4972;BME280;2501;51.214;6.768;2024-01-10T03:14:09;102608.53;;;-4.62;84.18
4972;BME280;2501;51.214;6.768;2024-01-10T03:16:38;102597.41;;;-4.62;83.62
4972;BME280;2501;51.214;6.768;2024-01-10T03:19:09;102607.63;;;-4.62;83.00
4972;BME280;2501;51.214;6.768;2024-01-10T03:21:38;102599.41;;;-4.77;83.22
4972;BME280;2501;51.214;6.768;2024-01-10T03:24:07;102601.16;;;-4.67;83.81
4972;BME280;2501;51.214;6.768;2024-01-10T03:26:35;102609.81;;;-4.93;83.36
4972;BME280;2501;51.214;6.768;2024-01-10T03:29:04;102608.88;;;-4.76;84.68
4972;BME280;2501;51.214;6.768;2024-01-10T03:31:32;102621.09;;;-4.73;83.63
4972;BME280;2501;51.214;6.768;2024-01-10T03:34:01;102619.44;;;-4.99;84.74
4972;BME280;2501;51.214;6.768;2024-01-10T03:36:32;102613.72;;;-4.96;84.86
4972;BME280;2501;51.214;6.768;2024-01-10T03:39:01;102615.38;;;-4.79;83.92
4972;BME280;2501;51.214;6.768;2024-01-10T03:41:29;102607.38;;;-4.82;83.77
4972;BME280;2501;51.214;6.768;2024-01-10T03:43:58;102606.47;;;-4.83;83.55
4972;BME280;2501;51.214;6.768;2024-01-10T03:46:26;102600.63;;;-4.99;84.86
4972;BME280;2501;51.214;6.768;2024-01-10T03:48:54;102610.25;;;-4.79;82.93
4972;BME280;2501;51.214;6.768;2024-01-10T03:51:23;102609.75;;;-4.67;82.64
4972;BME280;2501;51.214;6.768;2024-01-10T03:53:54;102612.75;;;-4.62;81.35
4972;BME280;2501;51.214;6.768;2024-01-10T03:56:23;102608.72;;;-4.69;82.09
4972;BME280;2501;51.214;6.768;2024-01-10T03:58:51;102616.13;;;-4.80;82.22
4972;BME280;2501;51.214;6.768;2024-01-10T04:01:22;102623.97;;;-4.87;82.27
4972;BME280;2501;51.214;6.768;2024-01-10T04:03:50;102618.84;;;-4.87;82.82
4972;BME280;2501;51.214;6.768;2024-01-10T04:06:19;102607.88;;;-5.30;84.18
4972;BME280;2501;51.214;6.768;2024-01-10T04:08:47;102613.00;;;-5.21;86.58
4972;BME280;2501;51.214;6.768;2024-01-10T04:11:18;102606.97;;;-4.96;84.60
4972;BME280;2501;51.214;6.768;2024-01-10T04:13:46;102603.06;;;-5.18;84.76
4972;BME280;2501;51.214;6.768;2024-01-10T04:16:15;102594.75;;;-4.98;85.12
4972;BME280;2501;51.214;6.768;2024-01-10T04:18:43;102597.78;;;-4.94;84.92
4972;BME280;2501;51.214;6.768;2024-01-10T04:21:12;102592.50;;;-4.95;85.16
4972;BME280;2501;51.214;6.768;2024-01-10T04:23:40;102600.03;;;-4.97;85.33
4972;BME280;2501;51.214;6.768;2024-01-10T04:26:09;102596.13;;;-5.02;85.88
4972;BME280;2501;51.214;6.768;2024-01-10T04:28:40;102591.94;;;-5.10;86.33
4972;BME280;2501;51.214;6.768;2024-01-10T04:31:08;102593.75;;;-5.26;86.78
4972;BME280;2501;51.214;6.768;2024-01-10T04:33:37;102589.63;;;-4.81;86.14
4972;BME280;2501;51.214;6.768;2024-01-10T04:36:06;102587.28;;;-5.40;87.42
4972;BME280;2501;51.214;6.768;2024-01-10T04:38:34;102591.91;;;-5.18;87.56
4972;BME280;2501;51.214;6.768;2024-01-10T04:41:03;102581.56;;;-5.29;88.51
4972;BME280;2501;51.214;6.768;2024-01-10T04:43:31;102589.22;;;-5.11;86.98
4972;BME280;2501;51.214;6.768;2024-01-10T04:46:03;102586.81;;;-5.10;86.24
4972;BME280;2501;51.214;6.768;2024-01-10T04:48:31;102580.81;;;-5.28;86.96
4972;BME280;2501;51.214;6.768;2024-01-10T04:50:59;102589.50;;;-5.34;86.33
4972;BME280;2501;51.214;6.768;2024-01-10T04:53:28;102584.25;;;-5.10;87.23
4972;BME280;2501;51.214;6.768;2024-01-10T04:55:56;102580.50;;;-5.05;86.16
4972;BME280;2501;51.214;6.768;2024-01-10T04:58:25;102574.31;;;-5.50;88.16
4972;BME280;2501;51.214;6.768;2024-01-10T05:00:55;102580.78;;;-5.10;86.75
4972;BME280;2501;51.214;6.768;2024-01-10T05:03:26;102577.19;;;-5.04;86.39
4972;BME280;2501;51.214;6.768;2024-01-10T05:05:54;102583.50;;;-5.17;86.53
4972;BME280;2501;51.214;6.768;2024-01-10T05:08:23;102582.56;;;-5.01;86.04
4972;BME280;2501;51.214;6.768;2024-01-10T05:10:51;102581.53;;;-4.94;86.07
4972;BME280;2501;51.214;6.768;2024-01-10T05:13:20;102586.22;;;-5.33;85.80
4972;BME280;2501;51.214;6.768;2024-01-10T05:15:48;102590.53;;;-4.98;86.54
4972;BME280;2501;51.214;6.768;2024-01-10T05:18:17;102590.59;;;-5.23;86.23
4972;BME280;2501;51.214;6.768;2024-01-10T05:20:49;102592.53;;;-5.38;86.85
4972;BME280;2501;51.214;6.768;2024-01-10T05:23:17;102594.03;;;-5.32;87.79
4972;BME280;2501;51.214;6.768;2024-01-10T05:25:46;102594.03;;;-5.23;85.83
4972;BME280;2501;51.214;6.768;2024-01-10T05:28:15;102579.44;;;-5.07;86.15
4972;BME280;2501;51.214;6.768;2024-01-10T05:30:43;102589.38;;;-5.10;85.46
4972;BME280;2501;51.214;6.768;2024-01-10T05:33:12;102577.47;;;-5.18;86.34
4972;BME280;2501;51.214;6.768;2024-01-10T05:35:40;102579.88;;;-5.11;86.19
4972;BME280;2501;51.214;6.768;2024-01-10T05:38:11;102586.19;;;-5.16;86.59
4972;BME280;2501;51.214;6.768;2024-01-10T05:40:40;102586.94;;;-5.17;86.94
4972;BME280;2501;51.214;6.768;2024-01-10T05:43:08;102584.38;;;-5.17;87.42
4972;BME280;2501;51.214;6.768;2024-01-10T05:45:38;102590.28;;;-5.09;88.53
4972;BME280;2501;51.214;6.768;2024-01-10T05:48:07;102587.72;;;-5.09;87.15
4972;BME280;2501;51.214;6.768;2024-01-10T05:50:35;102585.28;;;-4.99;87.59
4972;BME280;2501;51.214;6.768;2024-01-10T05:53:04;102586.94;;;-5.00;87.23
4972;BME280;2501;51.214;6.768;2024-01-10T05:55:36;102586.78;;;-4.93;86.01
4972;BME280;2501;51.214;6.768;2024-01-10T05:58:07;102580.19;;;-5.25;87.58
4972;BME280;2501;51.214;6.768;2024-01-10T06:00:36;102581.25;;;-5.06;87.71
4972;BME280;2501;51.214;6.768;2024-01-10T06:03:05;102577.66;;;-5.25;88.54
4972;BME280;2501;51.214;6.768;2024-01-10T06:05:34;102577.75;;;-4.98;87.75
4972;BME280;2501;51.214;6.768;2024-01-10T06:08:03;102581.69;;;-5.18;87.54
4972;BME280;2501;51.214;6.768;2024-01-10T06:10:32;102575.53;;;-5.12;88.99
4972;BME280;2501;51.214;6.768;2024-01-10T06:13:03;102576.28;;;-5.21;89.49
4972;BME280;2501;51.214;6.768;2024-01-10T06:15:32;102572.63;;;-4.98;90.72
4972;BME280;2501;51.214;6.768;2024-01-10T06:18:00;102587.69;;;-5.01;89.07
4972;BME280;2501;51.214;6.768;2024-01-10T06:20:29;102587.69;;;-5.18;89.73
4972;BME280;2501;51.214;6.768;2024-01-10T06:22:58;102589.81;;;-5.14;88.85
4972;BME280;2501;51.214;6.768;2024-01-10T06:25:26;102586.50;;;-4.87;90.31
4972;BME280;2501;51.214;6.768;2024-01-10T06:27:55;102588.84;;;-4.80;89.78
4972;BME280;2501;51.214;6.768;2024-01-10T06:30:26;102588.19;;;-5.39;89.75
4972;BME280;2501;51.214;6.768;2024-01-10T06:32:54;102590.88;;;-5.55;91.11
4972;BME280;2501;51.214;6.768;2024-01-10T06:35:23;102582.28;;;-4.86;88.85
4972;BME280;2501;51.214;6.768;2024-01-10T06:37:51;102586.94;;;-5.17;87.62
4972;BME280;2501;51.214;6.768;2024-01-10T06:40:20;102588.00;;;-5.32;87.81
4972;BME280;2501;51.214;6.768;2024-01-10T06:42:48;102595.81;;;-4.87;87.91
4972;BME280;2501;51.214;6.768;2024-01-10T06:45:17;102581.81;;;-5.00;87.45
4972;BME280;2501;51.214;6.768;2024-01-10T06:47:48;102583.63;;;-5.16;87.50
4972;BME280;2501;51.214;6.768;2024-01-10T06:50:16;102579.91;;;-5.19;88.51
4972;BME280;2501;51.214;6.768;2024-01-10T06:52:46;102574.63;;;-5.12;88.10
4972;BME280;2501;51.214;6.768;2024-01-10T06:55:14;102574.13;;;-5.00;87.03
4972;BME280;2501;51.214;6.768;2024-01-10T06:57:44;102576.38;;;-4.77;87.75
4972;BME280;2501;51.214;6.768;2024-01-10T07:00:14;102579.22;;;-4.74;86.32
4972;BME280;2501;51.214;6.768;2024-01-10T07:02:43;102579.88;;;-4.85;86.45
4972;BME280;2501;51.214;6.768;2024-01-10T07:05:14;102576.06;;;-4.80;84.95
4972;BME280;2501;51.214;6.768;2024-01-10T07:07:43;102572.31;;;-4.83;85.25
4972;BME280;2501;51.214;6.768;2024-01-10T07:10:11;102583.44;;;-4.74;85.74
4972;BME280;2501;51.214;6.768;2024-01-10T07:12:40;102574.59;;;-4.86;86.94
4972;BME280;2501;51.214;6.768;2024-01-10T07:15:09;102571.25;;;-4.68;85.84
4972;BME280;2501;51.214;6.768;2024-01-10T07:17:38;102563.81;;;-4.65;87.04
4972;BME280;2501;51.214;6.768;2024-01-10T07:20:09;102571.00;;;-5.06;88.41
4972;BME280;2501;51.214;6.768;2024-01-10T07:22:40;102565.69;;;-4.81;88.35
4972;BME280;2501;51.214;6.768;2024-01-10T07:25:09;102567.72;;;-5.22;89.58
4972;BME280;2501;51.214;6.768;2024-01-10T07:27:39;102573.69;;;-4.96;89.83
4972;BME280;2501;51.214;6.768;2024-01-10T07:30:09;102580.47;;;-4.87;89.16
4972;BME280;2501;51.214;6.768;2024-01-10T07:32:39;102583.78;;;-4.88;88.44
4972;BME280;2501;51.214;6.768;2024-01-10T07:35:08;102578.50;;;-4.99;89.66
4972;BME280;2501;51.214;6.768;2024-01-10T07:37:40;102584.69;;;-4.97;89.89
4972;BME280;2501;51.214;6.768;2024-01-10T07:40:10;102583.03;;;-4.87;89.81
4972;BME280;2501;51.214;6.768;2024-01-10T07:42:38;102578.16;;;-4.76;89.84
4972;BME280;2501;51.214;6.768;2024-01-10T07:45:08;102576.06;;;-4.80;89.10
4972;BME280;2501;51.214;6.768;2024-01-10T07:47:38;102575.50;;;-4.95;88.69
4972;BME280;2501;51.214;6.768;2024-01-10T07:50:07;102576.53;;;-5.01;89.29
4972;BME280;2501;51.214;6.768;2024-01-10T07:52:41;102581.97;;;-4.98;89.23
4972;BME280;2501;51.214;6.768;2024-01-10T07:55:10;102574.50;;;-4.61;88.23
4972;BME280;2501;51.214;6.768;2024-01-10T07:57:38;102582.00;;;-5.07;88.49
4972;BME280;2501;51.214;6.768;2024-01-10T08:00:08;102585.88;;;-4.93;87.49
4972;BME280;2501;51.214;6.768;2024-01-10T08:02:38;102580.44;;;-4.79;87.26
4972;BME280;2501;51.214;6.768;2024-01-10T08:05:08;102582.22;;;-4.69;85.84
4972;BME280;2501;51.214;6.768;2024-01-10T08:07:40;102574.69;;;-4.76;85.96
4972;BME280;2501;51.214;6.768;2024-01-10T08:10:10;102578.47;;;-4.81;86.96
4972;BME280;2501;51.214;6.768;2024-01-10T08:12:39;102583.94;;;-4.42;84.75
4972;BME280;2501;51.214;6.768;2024-01-10T08:15:08;102587.84;;;-4.46;84.75
4972;BME280;2501;51.214;6.768;2024-01-10T08:17:36;102587.59;;;-4.58;85.77
4972;BME280;2501;51.214;6.768;2024-01-10T08:20:07;102589.41;;;-4.65;85.69
4972;BME280;2501;51.214;6.768;2024-01-10T08:22:36;102590.28;;;-4.47;85.61
4972;BME280;2501;51.214;6.768;2024-01-10T08:25:09;102592.31;;;-4.79;88.19
4972;BME280;2501;51.214;6.768;2024-01-10T08:27:38;102604.03;;;-4.56;86.63
4972;BME280;2501;51.214;6.768;2024-01-10T08:30:08;102596.84;;;-4.32;85.04
4972;BME280;2501;51.214;6.768;2024-01-10T08:32:37;102598.00;;;-4.56;87.66
4972;BME280;2501;51.214;6.768;2024-01-10T08:35:06;102609.66;;;-4.85;90.21
4972;BME280;2501;51.214;6.768;2024-01-10T08:37:35;102619.75;;;-4.96;90.00
4972;BME280;2501;51.214;6.768;2024-01-10T08:40:01;102607.53;;;-4.81;89.75
4972;BME280;2501;51.214;6.768;2024-01-10T08:42:35;102604.44;;;-4.42;88.55
4972;BME280;2501;51.214;6.768;2024-01-10T08:45:05;102612.34;;;-4.84;87.78
4972;BME280;2501;51.214;6.768;2024-01-10T08:47:35;102594.25;;;-4.60;85.79
4972;BME280;2501;51.214;6.768;2024-01-10T08:50:04;102605.09;;;-4.62;83.74
4972;BME280;2501;51.214;6.768;2024-01-10T08:52:34;102612.03;;;-4.78;85.80
4972;BME280;2501;51.214;6.768;2024-01-10T08:55:04;102610.38;;;-4.69;87.18
4972;BME280;2501;51.214;6.768;2024-01-10T08:57:35;102621.66;;;-4.67;87.33
4972;BME280;2501;51.214;6.768;2024-01-10T09:00:07;102621.81;;;-4.66;87.87
4972;BME280;2501;51.214;6.768;2024-01-10T09:02:37;102611.56;;;-4.57;88.04
4972;BME280;2501;51.214;6.768;2024-01-10T09:05:07;102610.31;;;-4.43;87.09
4972;BME280;2501;51.214;6.768;2024-01-10T09:07:36;102615.78;;;-4.58;87.58
4972;BME280;2501;51.214;6.768;2024-01-10T09:10:05;102615.72;;;-4.49;88.54
4972;BME280;2501;51.214;6.768;2024-01-10T09:12:36;102615.34;;;-4.17;86.29
4972;BME280;2501;51.214;6.768;2024-01-10T09:15:06;102618.22;;;-4.32;84.12
4972;BME280;2501;51.214;6.768;2024-01-10T09:17:39;102611.78;;;-3.73;83.60
4972;BME280;2501;51.214;6.768;2024-01-10T09:20:08;102615.25;;;-3.73;82.33
4972;BME280;2501;51.214;6.768;2024-01-10T09:22:37;102625.25;;;-4.12;85.44
4972;BME280;2501;51.214;6.768;2024-01-10T09:25:06;102614.16;;;-4.21;84.89
4972;BME280;2501;51.214;6.768;2024-01-10T09:27:38;102620.66;;;-3.97;84.63
4972;BME280;2501;51.214;6.768;2024-01-10T09:30:10;102622.97;;;-4.09;84.32
4972;BME280;2501;51.214;6.768;2024-01-10T09:32:39;102620.09;;;-3.76;82.35
4972;BME280;2501;51.214;6.768;2024-01-10T09:35:07;102616.97;;;-3.17;78.07
4972;BME280;2501;51.214;6.768;2024-01-10T09:37:36;102621.34;;;-3.35;74.86
4972;BME280;2501;51.214;6.768;2024-01-10T09:40:06;102624.22;;;-3.40;78.25
4972;BME280;2501;51.214;6.768;2024-01-10T09:42:37;102628.53;;;-3.77;79.91
4972;BME280;2501;51.214;6.768;2024-01-10T09:45:08;102626.81;;;-3.87;81.03
4972;BME280;2501;51.214;6.768;2024-01-10T09:47:39;102625.59;;;-3.63;81.37
4972;BME280;2501;51.214;6.768;2024-01-10T09:50:17;102634.06;;;-3.64;81.03
4972;BME280;2501;51.214;6.768;2024-01-10T09:52:51;102627.25;;;-3.63;79.39
4972;BME280;2501;51.214;6.768;2024-01-10T09:55:21;102631.31;;;-3.38;78.80
4972;BME280;2501;51.214;6.768;2024-01-10T09:57:52;102633.31;;;-3.44;76.37
4972;BME280;2501;51.214;6.768;2024-01-10T10:00:22;102624.88;;;-3.24;73.89
4972;BME280;2501;51.214;6.768;2024-01-10T10:02:54;102626.81;;;-3.03;71.98
4972;BME280;2501;51.214;6.768;2024-01-10T10:05:24;102627.34;;;-2.78;69.02
4972;BME280;2501;51.214;6.768;2024-01-10T10:07:53;102616.59;;;-2.93;70.48
4972;BME280;2501;51.214;6.768;2024-01-10T10:10:23;102615.66;;;-1.96;67.96
4972;BME280;2501;51.214;6.768;2024-01-10T10:12:55;102619.94;;;-2.36;68.25
4972;BME280;2501;51.214;6.768;2024-01-10T10:15:25;102622.28;;;-2.87;67.69
4972;BME280;2501;51.214;6.768;2024-01-10T10:17:54;102615.34;;;-2.88;69.42
4972;BME280;2501;51.214;6.768;2024-01-10T10:20:24;102618.25;;;-2.93;72.61
4972;BME280;2501;51.214;6.768;2024-01-10T10:23:00;102617.63;;;-2.43;75.06
4972;BME280;2501;51.214;6.768;2024-01-10T10:25:31;102617.75;;;-2.70;69.58
4972;BME280;2501;51.214;6.768;2024-01-10T10:28:03;102622.81;;;-2.62;69.00
4972;BME280;2501;51.214;6.768;2024-01-10T10:30:33;102633.06;;;-2.62;69.07
4972;BME280;2501;51.214;6.768;2024-01-10T10:33:02;102627.56;;;-2.56;68.54
4972;BME280;2501;51.214;6.768;2024-01-10T10:35:33;102625.03;;;-2.46;68.68
4972;BME280;2501;51.214;6.768;2024-01-10T10:38:02;102629.84;;;-2.30;69.24
4972;BME280;2501;51.214;6.768;2024-01-10T10:40:31;102627.22;;;-2.12;69.31
4972;BME280;2501;51.214;6.768;2024-01-10T10:43:03;102628.13;;;-2.40;66.62
4972;BME280;2501;51.214;6.768;2024-01-10T10:45:33;102626.72;;;-2.36;67.84
4972;BME280;2501;51.214;6.768;2024-01-10T10:48:03;102625.41;;;-2.02;66.52
4972;BME280;2501;51.214;6.768;2024-01-10T10:50:35;102615.19;;;-2.31;65.60
4972;BME280;2501;51.214;6.768;2024-01-10T10:53:04;102605.81;;;-2.31;64.92
4972;BME280;2501;51.214;6.768;2024-01-10T10:55:34;102601.78;;;-1.88;63.85
4972;BME280;2501;51.214;6.768;2024-01-10T10:58:07;102604.81;;;-1.01;62.31
4972;BME280;2501;51.214;6.768;2024-01-10T11:00:37;102598.84;;;-1.42;60.89
4972;BME280;2501;51.214;6.768;2024-01-10T11:03:07;102600.78;;;-1.60;61.71
4972;BME280;2501;51.214;6.768;2024-01-10T11:05:40;102608.50;;;-1.60;61.74
4972;BME280;2501;51.214;6.768;2024-01-10T11:08:11;102605.28;;;-1.57;61.77
4972;BME280;2501;51.214;6.768;2024-01-10T11:10:40;102605.13;;;-1.28;60.99
4972;BME280;2501;51.214;6.768;2024-01-10T11:13:25;102612.72;;;-1.30;60.87
4972;BME280;2501;51.214;6.768;2024-01-10T11:19:05;102612.09;;;-1.68;62.59
4972;BME280;2501;51.214;6.768;2024-01-10T11:21:50;102603.09;;;-1.63;63.51
4972;BME280;2501;51.214;6.768;2024-01-10T11:24:24;102607.97;;;-1.76;63.33
4972;BME280;2501;51.214;6.768;2024-01-10T11:27:06;102593.97;;;-0.87;62.47
4972;BME280;2501;51.214;6.768;2024-01-10T11:29:42;102591.09;;;-1.32;61.77
4972;BME280;2501;51.214;6.768;2024-01-10T11:32:15;102585.44;;;-1.38;62.38
4972;BME280;2501;51.214;6.768;2024-01-10T11:34:54;102596.88;;;-1.34;62.57
4972;BME280;2501;51.214;6.768;2024-01-10T11:37:28;102586.59;;;-1.24;64.43
4972;BME280;2501;51.214;6.768;2024-01-10T11:39:57;102590.59;;;-1.28;62.91
4972;BME280;2501;51.214;6.768;2024-01-10T11:42:41;102587.00;;;-1.40;61.93
4972;BME280;2501;51.214;6.768;2024-01-10T11:47:59;102589.13;;;-1.14;61.59
4972;BME280;2501;51.214;6.768;2024-01-10T11:50:29;102582.09;;;-1.37;61.03
4972;BME280;2501;51.214;6.768;2024-01-10T11:52:57;102582.75;;;-1.39;61.66
4972;BME280;2501;51.214;6.768;2024-01-10T11:55:56;102580.03;;;-1.31;62.56
4972;BME280;2501;51.214;6.768;2024-01-10T11:58:24;102581.94;;;-1.18;62.46
4972;BME280;2501;51.214;6.768;2024-01-10T12:00:55;102580.41;;;-1.26;62.48
4972;BME280;2501;51.214;6.768;2024-01-10T12:03:24;102570.09;;;-1.16;63.36
4972;BME280;2501;51.214;6.768;2024-01-10T12:05:53;102572.94;;;-1.23;63.77
4972;BME280;2501;51.214;6.768;2024-01-10T12:08:22;102568.91;;;-1.20;63.53
4972;BME280;2501;51.214;6.768;2024-01-10T12:10:51;102574.75;;;-1.22;63.13
4972;BME280;2501;51.214;6.768;2024-01-10T12:13:21;102568.44;;;-1.36;63.60
4972;BME280;2501;51.214;6.768;2024-01-10T12:15:49;102567.66;;;-1.35;64.56
4972;BME280;2501;51.214;6.768;2024-01-10T12:18:23;102564.06;;;-1.27;63.71
4972;BME280;2501;51.214;6.768;2024-01-10T12:20:52;102566.41;;;-1.40;62.11
4972;BME280;2501;51.214;6.768;2024-01-10T12:23:21;102561.63;;;-1.35;62.81
4972;BME280;2501;51.214;6.768;2024-01-10T12:25:50;102560.97;;;-1.33;63.33
4972;BME280;2501;51.214;6.768;2024-01-10T12:28:18;102561.50;;;-1.37;63.49
4972;BME280;2501;51.214;6.768;2024-01-10T12:30:47;102559.44;;;-1.31;63.63
4972;BME280;2501;51.214;6.768;2024-01-10T12:33:16;102570.00;;;-1.48;63.49
4972;BME280;2501;51.214;6.768;2024-01-10T12:36:02;102566.03;;;-1.45;64.40
4972;BME280;2501;51.214;6.768;2024-01-10T12:38:30;102564.88;;;-1.48;65.29
4972;BME280;2501;51.214;6.768;2024-01-10T12:40:59;102564.75;;;-1.39;67.18
4972;BME280;2501;51.214;6.768;2024-01-10T12:43:29;102568.59;;;-1.45;66.74
4972;BME280;2501;51.214;6.768;2024-01-10T12:46:07;102560.19;;;-1.22;68.56
4972;BME280;2501;51.214;6.768;2024-01-10T12:48:36;102561.63;;;-1.35;67.03
4972;BME280;2501;51.214;6.768;2024-01-10T12:51:09;102554.94;;;-1.33;67.83
4972;BME280;2501;51.214;6.768;2024-01-10T12:53:39;102562.16;;;-0.87;63.97
4972;BME280;2501;51.214;6.768;2024-01-10T12:56:09;102559.78;;;-1.16;63.86
4972;BME280;2501;51.214;6.768;2024-01-10T12:58:40;102558.22;;;-1.04;64.49
4972;BME280;2501;51.214;6.768;2024-01-10T13:01:09;102561.88;;;-1.22;66.18
4972;BME280;2501;51.214;6.768;2024-01-10T13:03:38;102563.56;;;-1.23;67.40
4972;BME280;2501;51.214;6.768;2024-01-10T13:06:10;102563.16;;;-1.27;68.48
4972;BME280;2501;51.214;6.768;2024-01-10T13:08:38;102566.78;;;-1.25;69.13
4972;BME280;2501;51.214;6.768;2024-01-10T13:11:07;102560.06;;;-1.23;67.70
4972;BME280;2501;51.214;6.768;2024-01-10T13:13:36;102559.41;;;-1.21;68.24
4972;BME280;2501;51.214;6.768;2024-01-10T13:16:08;102565.06;;;-1.04;70.59
4972;BME280;2501;51.214;6.768;2024-01-10T13:18:38;102560.44;;;-0.77;69.07
4972;BME280;2501;51.214;6.768;2024-01-10T13:21:06;102555.00;;;-0.04;63.41
4972;BME280;2501;51.214;6.768;2024-01-10T13:23:38;102553.97;;;-0.28;62.21
4972;BME280;2501;51.214;6.768;2024-01-10T13:26:07;102555.75;;;-0.39;61.26
4972;BME280;2501;51.214;6.768;2024-01-10T13:28:36;102560.81;;;-0.82;61.83